sensor_id;sensor_type;location;lat;lon;timestamp;P1;durP1;ratioP1;P2;durP2;ratioP2
53151;SDS011;77614;53.140;6.366;2024-03-29T00:01:25;5.05;;;1.30;;
53151;SDS011;77614;53.140;6.366;2024-03-29T00:03:51;5.35;;;1.60;;
53151;SDS011;77614;53.140;6.366;2024-03-29T00:06:20;5.20;;;1.35;;
53151;SDS011;77614;53.140;6.366;2024-03-29T00:08:46;5.93;;;2.38;;
53151;SDS011;77614;53.140;6.366;2024-03-29T00:11:12;6.75;;;1.50;;
53151;SDS011;77614;53.140;6.366;2024-03-29T00:13:38;4.18;;;1.50;;
53151;SDS011;77614;53.140;6.366;2024-03-29T00:16:04;5.40;;;1.65;;
53151;SDS011;77614;53.140;6.366;2024-03-29T00:18:31;7.70;;;1.70;;
53151;SDS011;77614;53.140;6.366;2024-03-29T00:20:56;5.13;;;1.23;;
53151;SDS011;77614;53.140;6.366;2024-03-29T00:23:22;5.15;;;1.13;;
53151;SDS011;77614;53.140;6.366;2024-03-29T00:25:48;5.50;;;1.65;;
53151;SDS011;77614;53.140;6.366;2024-03-29T00:28:14;3.78;;;1.30;;
53151;SDS011;77614;53.140;6.366;2024-03-29T00:30:40;5.70;;;1.73;;
53151;SDS011;77614;53.140;6.366;2024-03-29T00:33:06;6.50;;;1.55;;
53151;SDS011;77614;53.140;6.366;2024-03-29T00:35:32;6.53;;;1.70;;
53151;SDS011;77614;53.140;6.366;2024-03-29T00:37:58;6.22;;;1.65;;
53151;SDS011;77614;53.140;6.366;2024-03-29T00:40:24;7.20;;;1.50;;
53151;SDS011;77614;53.140;6.366;2024-03-29T00:42:50;5.75;;;1.52;;
53151;SDS011;77614;53.140;6.366;2024-03-29T00:45:16;6.70;;;1.58;;
53151;SDS011;77614;53.140;6.366;2024-03-29T00:47:42;6.50;;;1.80;;
53151;SDS011;77614;53.140;6.366;2024-03-29T00:50:08;4.45;;;1.38;;
53151;SDS011;77614;53.140;6.366;2024-03-29T00:52:35;5.63;;;1.40;;
53151;SDS011;77614;53.140;6.366;2024-03-29T00:55:01;6.00;;;1.42;;
53151;SDS011;77614;53.140;6.366;2024-03-29T00:57:28;6.88;;;1.65;;
53151;SDS011;77614;53.140;6.366;2024-03-29T00:59:54;7.90;;;1.67;;
53151;SDS011;77614;53.140;6.366;2024-03-29T01:02:22;4.32;;;1.40;;
53151;SDS011;77614;53.140;6.366;2024-03-29T01:04:49;4.90;;;1.25;;
53151;SDS011;77614;53.140;6.366;2024-03-29T01:07:15;7.53;;;1.48;;
53151;SDS011;77614;53.140;6.366;2024-03-29T01:09:43;4.80;;;1.30;;
53151;SDS011;77614;53.140;6.366;2024-03-29T01:12:09;5.93;;;1.42;;
53151;SDS011;77614;53.140;6.366;2024-03-29T01:14:36;5.40;;;1.30;;
53151;SDS011;77614;53.140;6.366;2024-03-29T01:17:02;5.90;;;1.23;;
53151;SDS011;77614;53.140;6.366;2024-03-29T01:19:29;4.85;;;1.35;;
53151;SDS011;77614;53.140;6.366;2024-03-29T01:21:55;7.00;;;1.50;;
53151;SDS011;77614;53.140;6.366;2024-03-29T01:24:21;4.22;;;1.38;;
53151;SDS011;77614;53.140;6.366;2024-03-29T01:26:47;4.75;;;1.40;;
53151;SDS011;77614;53.140;6.366;2024-03-29T01:29:13;5.80;;;1.60;;
53151;SDS011;77614;53.140;6.366;2024-03-29T01:31:39;5.05;;;1.50;;
53151;SDS011;77614;53.140;6.366;2024-03-29T01:34:05;5.28;;;1.30;;
53151;SDS011;77614;53.140;6.366;2024-03-29T01:36:31;5.75;;;1.35;;
53151;SDS011;77614;53.140;6.366;2024-03-29T01:38:57;6.90;;;1.48;;
53151;SDS011;77614;53.140;6.366;2024-03-29T01:41:24;5.50;;;1.80;;
53151;SDS011;77614;53.140;6.366;2024-03-29T01:43:52;5.25;;;1.30;;
53151;SDS011;77614;53.140;6.366;2024-03-29T01:46:22;5.00;;;1.20;;
53151;SDS011;77614;53.140;6.366;2024-03-29T01:48:52;4.68;;;1.20;;
53151;SDS011;77614;53.140;6.366;2024-03-29T01:51:22;3.67;;;1.30;;
53151;SDS011;77614;53.140;6.366;2024-03-29T01:53:49;4.22;;;0.98;;
53151;SDS011;77614;53.140;6.366;2024-03-29T01:56:18;5.95;;;1.35;;
53151;SDS011;77614;53.140;6.366;2024-03-29T01:58:48;8.27;;;1.58;;
53151;SDS011;77614;53.140;6.366;2024-03-29T02:01:15;5.93;;;1.30;;
53151;SDS011;77614;53.140;6.366;2024-03-29T02:03:43;5.00;;;1.75;;
53151;SDS011;77614;53.140;6.366;2024-03-29T02:06:09;4.28;;;1.27;;
53151;SDS011;77614;53.140;6.366;2024-03-29T02:08:37;7.18;;;1.60;;
53151;SDS011;77614;53.140;6.366;2024-03-29T02:11:04;7.30;;;1.45;;
53151;SDS011;77614;53.140;6.366;2024-03-29T02:13:31;5.03;;;1.25;;
53151;SDS011;77614;53.140;6.366;2024-03-29T02:15:57;4.95;;;1.25;;
53151;SDS011;77614;53.140;6.366;2024-03-29T02:18:23;4.38;;;1.30;;
53151;SDS011;77614;53.140;6.366;2024-03-29T02:20:49;5.85;;;1.40;;
53151;SDS011;77614;53.140;6.366;2024-03-29T02:23:29;6.03;;;1.45;;
53151;SDS011;77614;53.140;6.366;2024-03-29T02:25:58;6.38;;;1.35;;
53151;SDS011;77614;53.140;6.366;2024-03-29T02:28:24;4.93;;;1.20;;
53151;SDS011;77614;53.140;6.366;2024-03-29T02:30:50;6.63;;;1.25;;
53151;SDS011;77614;53.140;6.366;2024-03-29T02:33:16;4.05;;;1.10;;
53151;SDS011;77614;53.140;6.366;2024-03-29T02:35:42;5.50;;;1.20;;
53151;SDS011;77614;53.140;6.366;2024-03-29T02:38:08;4.80;;;1.20;;
53151;SDS011;77614;53.140;6.366;2024-03-29T02:40:34;5.40;;;1.30;;
53151;SDS011;77614;53.140;6.366;2024-03-29T02:43:00;3.35;;;1.05;;
53151;SDS011;77614;53.140;6.366;2024-03-29T02:45:26;5.07;;;1.10;;
53151;SDS011;77614;53.140;6.366;2024-03-29T02:47:52;7.20;;;1.40;;
53151;SDS011;77614;53.140;6.366;2024-03-29T02:50:18;4.45;;;1.40;;
53151;SDS011;77614;53.140;6.366;2024-03-29T02:52:44;4.82;;;1.25;;
53151;SDS011;77614;53.140;6.366;2024-03-29T02:55:10;5.63;;;1.20;;
53151;SDS011;77614;53.140;6.366;2024-03-29T02:57:37;5.95;;;1.20;;
53151;SDS011;77614;53.140;6.366;2024-03-29T03:00:04;4.68;;;1.30;;
53151;SDS011;77614;53.140;6.366;2024-03-29T03:02:31;6.05;;;1.95;;
53151;SDS011;77614;53.140;6.366;2024-03-29T03:04:57;5.63;;;1.38;;
53151;SDS011;77614;53.140;6.366;2024-03-29T03:07:26;3.95;;;1.30;;
53151;SDS011;77614;53.140;6.366;2024-03-29T03:10:11;5.35;;;1.42;;
53151;SDS011;77614;53.140;6.366;2024-03-29T03:12:55;7.18;;;1.38;;
53151;SDS011;77614;53.140;6.366;2024-03-29T03:15:21;4.30;;;1.35;;
53151;SDS011;77614;53.140;6.366;2024-03-29T03:17:47;3.53;;;1.00;;
53151;SDS011;77614;53.140;6.366;2024-03-29T03:20:13;4.70;;;1.30;;
53151;SDS011;77614;53.140;6.366;2024-03-29T03:22:40;4.90;;;1.20;;
53151;SDS011;77614;53.140;6.366;2024-03-29T03:25:06;4.60;;;1.20;;
53151;SDS011;77614;53.140;6.366;2024-03-29T03:27:33;5.95;;;1.40;;
53151;SDS011;77614;53.140;6.366;2024-03-29T03:29:59;5.63;;;1.45;;
53151;SDS011;77614;53.140;6.366;2024-03-29T03:32:25;5.40;;;1.10;;
53151;SDS011;77614;53.140;6.366;2024-03-29T03:34:51;6.13;;;1.42;;
53151;SDS011;77614;53.140;6.366;2024-03-29T03:37:17;5.05;;;1.30;;
53151;SDS011;77614;53.140;6.366;2024-03-29T03:39:43;4.47;;;1.20;;
53151;SDS011;77614;53.140;6.366;2024-03-29T03:42:09;7.07;;;1.20;;
53151;SDS011;77614;53.140;6.366;2024-03-29T03:44:35;5.85;;;1.33;;
53151;SDS011;77614;53.140;6.366;2024-03-29T03:47:01;4.35;;;1.15;;
53151;SDS011;77614;53.140;6.366;2024-03-29T03:49:27;7.57;;;1.35;;
53151;SDS011;77614;53.140;6.366;2024-03-29T03:51:53;4.65;;;1.40;;
53151;SDS011;77614;53.140;6.366;2024-03-29T03:54:19;5.45;;;1.30;;
53151;SDS011;77614;53.140;6.366;2024-03-29T03:56:45;2.75;;;0.93;;
53151;SDS011;77614;53.140;6.366;2024-03-29T03:59:11;4.35;;;1.40;;
53151;SDS011;77614;53.140;6.366;2024-03-29T04:01:39;5.00;;;1.25;;
53151;SDS011;77614;53.140;6.366;2024-03-29T04:04:05;5.05;;;1.10;;
53151;SDS011;77614;53.140;6.366;2024-03-29T04:06:31;3.80;;;0.93;;
53151;SDS011;77614;53.140;6.366;2024-03-29T04:08:57;2.97;;;1.10;;
53151;SDS011;77614;53.140;6.366;2024-03-29T04:11:23;5.50;;;1.40;;
53151;SDS011;77614;53.140;6.366;2024-03-29T04:13:49;6.60;;;1.30;;
53151;SDS011;77614;53.140;6.366;2024-03-29T04:16:15;4.18;;;0.90;;
53151;SDS011;77614;53.140;6.366;2024-03-29T04:18:41;4.72;;;1.20;;
53151;SDS011;77614;53.140;6.366;2024-03-29T04:21:07;3.42;;;0.85;;
53151;SDS011;77614;53.140;6.366;2024-03-29T04:23:32;4.25;;;1.10;;
53151;SDS011;77614;53.140;6.366;2024-03-29T04:25:59;4.72;;;1.23;;
53151;SDS011;77614;53.140;6.366;2024-03-29T04:28:25;3.45;;;1.17;;
53151;SDS011;77614;53.140;6.366;2024-03-29T04:33:24;6.05;;;1.45;;
53151;SDS011;77614;53.140;6.366;2024-03-29T04:35:55;4.43;;;1.10;;
53151;SDS011;77614;53.140;6.366;2024-03-29T04:38:25;7.30;;;1.45;;
53151;SDS011;77614;53.140;6.366;2024-03-29T04:40:53;4.25;;;1.20;;
53151;SDS011;77614;53.140;6.366;2024-03-29T04:43:26;4.20;;;1.20;;
53151;SDS011;77614;53.140;6.366;2024-03-29T04:46:08;4.72;;;1.10;;
53151;SDS011;77614;53.140;6.366;2024-03-29T04:48:36;5.53;;;1.38;;
53151;SDS011;77614;53.140;6.366;2024-03-29T04:51:03;3.80;;;1.10;;
53151;SDS011;77614;53.140;6.366;2024-03-29T04:53:29;3.88;;;1.10;;
53151;SDS011;77614;53.140;6.366;2024-03-29T04:55:56;4.90;;;1.63;;
53151;SDS011;77614;53.140;6.366;2024-03-29T04:58:26;4.45;;;1.20;;
53151;SDS011;77614;53.140;6.366;2024-03-29T05:00:54;3.33;;;0.88;;
53151;SDS011;77614;53.140;6.366;2024-03-29T05:03:20;4.63;;;1.30;;
53151;SDS011;77614;53.140;6.366;2024-03-29T05:05:48;8.23;;;1.77;;
53151;SDS011;77614;53.140;6.366;2024-03-29T05:08:15;5.65;;;1.40;;
53151;SDS011;77614;53.140;6.366;2024-03-29T05:10:43;5.00;;;1.27;;
53151;SDS011;77614;53.140;6.366;2024-03-29T05:13:09;4.90;;;1.00;;
53151;SDS011;77614;53.140;6.366;2024-03-29T05:15:35;4.28;;;0.95;;
53151;SDS011;77614;53.140;6.366;2024-03-29T05:18:02;4.80;;;1.35;;
53151;SDS011;77614;53.140;6.366;2024-03-29T05:20:28;4.15;;;1.20;;
53151;SDS011;77614;53.140;6.366;2024-03-29T05:22:55;3.80;;;1.02;;
53151;SDS011;77614;53.140;6.366;2024-03-29T05:25:21;5.15;;;1.15;;
53151;SDS011;77614;53.140;6.366;2024-03-29T05:27:49;5.55;;;1.27;;
53151;SDS011;77614;53.140;6.366;2024-03-29T05:30:15;4.97;;;1.02;;
53151;SDS011;77614;53.140;6.366;2024-03-29T05:32:41;3.47;;;1.20;;
53151;SDS011;77614;53.140;6.366;2024-03-29T05:35:07;3.83;;;1.17;;
53151;SDS011;77614;53.140;6.366;2024-03-29T05:37:35;6.47;;;1.33;;
53151;SDS011;77614;53.140;6.366;2024-03-29T05:40:01;3.10;;;0.90;;
53151;SDS011;77614;53.140;6.366;2024-03-29T05:42:30;4.88;;;1.48;;
53151;SDS011;77614;53.140;6.366;2024-03-29T05:44:58;3.20;;;1.10;;
53151;SDS011;77614;53.140;6.366;2024-03-29T05:47:24;4.85;;;1.33;;
53151;SDS011;77614;53.140;6.366;2024-03-29T05:49:50;6.13;;;1.20;;
53151;SDS011;77614;53.140;6.366;2024-03-29T05:52:16;7.18;;;1.10;;
53151;SDS011;77614;53.140;6.366;2024-03-29T05:54:43;8.35;;;1.05;;
53151;SDS011;77614;53.140;6.366;2024-03-29T05:57:09;6.00;;;1.52;;
53151;SDS011;77614;53.140;6.366;2024-03-29T05:59:36;7.68;;;1.40;;
53151;SDS011;77614;53.140;6.366;2024-03-29T06:02:02;6.13;;;1.40;;
53151;SDS011;77614;53.140;6.366;2024-03-29T06:04:28;5.32;;;1.10;;
53151;SDS011;77614;53.140;6.366;2024-03-29T06:07:01;10.02;;;1.95;;
53151;SDS011;77614;53.140;6.366;2024-03-29T06:09:28;7.47;;;1.40;;
53151;SDS011;77614;53.140;6.366;2024-03-29T06:11:55;10.82;;;1.67;;
53151;SDS011;77614;53.140;6.366;2024-03-29T06:14:22;8.48;;;1.20;;
53151;SDS011;77614;53.140;6.366;2024-03-29T06:17:07;13.30;;;2.00;;
53151;SDS011;77614;53.140;6.366;2024-03-29T06:19:49;7.80;;;1.40;;
53151;SDS011;77614;53.140;6.366;2024-03-29T06:22:21;10.05;;;1.65;;
53151;SDS011;77614;53.140;6.366;2024-03-29T06:24:51;8.25;;;1.70;;
53151;SDS011;77614;53.140;6.366;2024-03-29T06:27:18;9.13;;;1.65;;
53151;SDS011;77614;53.140;6.366;2024-03-29T06:29:45;10.18;;;1.52;;
53151;SDS011;77614;53.140;6.366;2024-03-29T06:32:11;11.00;;;1.50;;
53151;SDS011;77614;53.140;6.366;2024-03-29T06:34:37;14.88;;;1.40;;
53151;SDS011;77614;53.140;6.366;2024-03-29T06:37:03;12.25;;;1.42;;
53151;SDS011;77614;53.140;6.366;2024-03-29T06:39:30;8.98;;;1.52;;
53151;SDS011;77614;53.140;6.366;2024-03-29T06:41:56;10.50;;;1.80;;
53151;SDS011;77614;53.140;6.366;2024-03-29T06:44:22;16.70;;;1.90;;
53151;SDS011;77614;53.140;6.366;2024-03-29T06:46:47;12.00;;;1.88;;
53151;SDS011;77614;53.140;6.366;2024-03-29T06:49:14;8.18;;;1.45;;
53151;SDS011;77614;53.140;6.366;2024-03-29T06:51:40;11.55;;;1.40;;
53151;SDS011;77614;53.140;6.366;2024-03-29T06:54:06;11.60;;;1.73;;
53151;SDS011;77614;53.140;6.366;2024-03-29T06:56:32;12.35;;;1.63;;
53151;SDS011;77614;53.140;6.366;2024-03-29T06:58:58;11.18;;;2.20;;
53151;SDS011;77614;53.140;6.366;2024-03-29T07:01:24;16.33;;;1.50;;
53151;SDS011;77614;53.140;6.366;2024-03-29T07:03:50;14.77;;;2.17;;
53151;SDS011;77614;53.140;6.366;2024-03-29T07:06:15;9.20;;;1.50;;
53151;SDS011;77614;53.140;6.366;2024-03-29T07:08:41;10.43;;;1.40;;
53151;SDS011;77614;53.140;6.366;2024-03-29T07:11:07;12.68;;;1.45;;
53151;SDS011;77614;53.140;6.366;2024-03-29T07:13:33;13.57;;;1.85;;
53151;SDS011;77614;53.140;6.366;2024-03-29T07:15:59;17.60;;;1.95;;
53151;SDS011;77614;53.140;6.366;2024-03-29T07:18:25;15.57;;;1.75;;
53151;SDS011;77614;53.140;6.366;2024-03-29T07:20:52;15.50;;;2.83;;
53151;SDS011;77614;53.140;6.366;2024-03-29T07:23:18;20.45;;;2.42;;
53151;SDS011;77614;53.140;6.366;2024-03-29T07:25:44;21.52;;;1.50;;
53151;SDS011;77614;53.140;6.366;2024-03-29T07:28:11;12.48;;;1.20;;
53151;SDS011;77614;53.140;6.366;2024-03-29T07:30:40;18.80;;;2.80;;
53151;SDS011;77614;53.140;6.366;2024-03-29T07:33:07;13.57;;;1.85;;
53151;SDS011;77614;53.140;6.366;2024-03-29T07:35:34;25.40;;;2.40;;
53151;SDS011;77614;53.140;6.366;2024-03-29T07:38:00;24.60;;;2.25;;
53151;SDS011;77614;53.140;6.366;2024-03-29T07:40:26;32.05;;;2.35;;
53151;SDS011;77614;53.140;6.366;2024-03-29T07:42:52;35.38;;;4.38;;
53151;SDS011;77614;53.140;6.366;2024-03-29T07:45:18;23.73;;;2.53;;
53151;SDS011;77614;53.140;6.366;2024-03-29T07:47:44;14.95;;;2.15;;
53151;SDS011;77614;53.140;6.366;2024-03-29T07:50:11;19.00;;;2.92;;
53151;SDS011;77614;53.140;6.366;2024-03-29T07:52:37;13.82;;;1.50;;
53151;SDS011;77614;53.140;6.366;2024-03-29T07:55:03;10.23;;;1.65;;
53151;SDS011;77614;53.140;6.366;2024-03-29T07:57:29;16.30;;;2.05;;
53151;SDS011;77614;53.140;6.366;2024-03-29T13:02:41;17.35;;;3.05;;
53151;SDS011;77614;53.140;6.366;2024-03-29T13:05:07;42.78;;;3.13;;
53151;SDS011;77614;53.140;6.366;2024-03-29T13:07:34;40.75;;;3.00;;
53151;SDS011;77614;53.140;6.366;2024-03-29T13:10:00;21.58;;;2.72;;
53151;SDS011;77614;53.140;6.366;2024-03-29T13:12:30;20.52;;;1.92;;
53151;SDS011;77614;53.140;6.366;2024-03-29T13:15:01;14.55;;;1.73;;
53151;SDS011;77614;53.140;6.366;2024-03-29T13:17:31;16.13;;;1.40;;
53151;SDS011;77614;53.140;6.366;2024-03-29T13:19:57;19.00;;;2.08;;
53151;SDS011;77614;53.140;6.366;2024-03-29T13:22:24;19.23;;;2.05;;
53151;SDS011;77614;53.140;6.366;2024-03-29T13:24:50;15.57;;;2.10;;
53151;SDS011;77614;53.140;6.366;2024-03-29T13:27:17;11.55;;;1.85;;
53151;SDS011;77614;53.140;6.366;2024-03-29T13:29:43;12.13;;;1.67;;
53151;SDS011;77614;53.140;6.366;2024-03-29T13:32:08;24.48;;;2.95;;
53151;SDS011;77614;53.140;6.366;2024-03-29T13:34:34;20.08;;;2.00;;
53151;SDS011;77614;53.140;6.366;2024-03-29T13:37:00;18.95;;;2.47;;
53151;SDS011;77614;53.140;6.366;2024-03-29T13:39:26;19.40;;;2.95;;
53151;SDS011;77614;53.140;6.366;2024-03-29T13:41:52;21.38;;;2.47;;
53151;SDS011;77614;53.140;6.366;2024-03-29T13:44:18;14.57;;;1.77;;
53151;SDS011;77614;53.140;6.366;2024-03-29T13:46:44;16.85;;;1.98;;
53151;SDS011;77614;53.140;6.366;2024-03-29T13:49:10;9.13;;;1.33;;
53151;SDS011;77614;53.140;6.366;2024-03-29T13:51:38;11.48;;;2.20;;
53151;SDS011;77614;53.140;6.366;2024-03-29T13:54:04;18.15;;;2.28;;
53151;SDS011;77614;53.140;6.366;2024-03-29T13:56:30;13.27;;;1.75;;
53151;SDS011;77614;53.140;6.366;2024-03-29T13:58:56;22.40;;;2.83;;
53151;SDS011;77614;53.140;6.366;2024-03-29T14:01:22;16.20;;;2.20;;
53151;SDS011;77614;53.140;6.366;2024-03-29T14:03:48;13.57;;;2.65;;
53151;SDS011;77614;53.140;6.366;2024-03-29T14:06:13;10.65;;;1.92;;
53151;SDS011;77614;53.140;6.366;2024-03-29T14:08:39;18.08;;;1.80;;
53151;SDS011;77614;53.140;6.366;2024-03-29T14:11:05;12.65;;;2.05;;
53151;SDS011;77614;53.140;6.366;2024-03-29T14:13:31;9.02;;;1.67;;
53151;SDS011;77614;53.140;6.366;2024-03-29T14:15:57;11.68;;;1.75;;
53151;SDS011;77614;53.140;6.366;2024-03-29T14:18:25;14.55;;;2.60;;
53151;SDS011;77614;53.140;6.366;2024-03-29T14:20:51;7.18;;;1.20;;
53151;SDS011;77614;53.140;6.366;2024-03-29T14:23:17;23.77;;;2.10;;
53151;SDS011;77614;53.140;6.366;2024-03-29T14:25:47;24.63;;;2.17;;
53151;SDS011;77614;53.140;6.366;2024-03-29T14:28:14;36.08;;;3.15;;
53151;SDS011;77614;53.140;6.366;2024-03-29T14:30:39;39.40;;;2.85;;
53151;SDS011;77614;53.140;6.366;2024-03-29T14:33:05;33.33;;;3.08;;
53151;SDS011;77614;53.140;6.366;2024-03-29T14:35:32;26.30;;;3.67;;
53151;SDS011;77614;53.140;6.366;2024-03-29T14:37:59;29.02;;;2.67;;
53151;SDS011;77614;53.140;6.366;2024-03-29T14:40:25;32.38;;;2.67;;
53151;SDS011;77614;53.140;6.366;2024-03-29T14:42:54;23.63;;;2.22;;
53151;SDS011;77614;53.140;6.366;2024-03-29T14:45:20;20.20;;;2.22;;
53151;SDS011;77614;53.140;6.366;2024-03-29T14:47:46;22.00;;;2.78;;
53151;SDS011;77614;53.140;6.366;2024-03-29T14:50:12;15.68;;;2.45;;
53151;SDS011;77614;53.140;6.366;2024-03-29T14:52:38;22.75;;;2.70;;
53151;SDS011;77614;53.140;6.366;2024-03-29T14:55:04;17.48;;;2.33;;
53151;SDS011;77614;53.140;6.366;2024-03-29T14:57:30;22.48;;;2.28;;
53151;SDS011;77614;53.140;6.366;2024-03-29T14:59:57;19.30;;;2.10;;
53151;SDS011;77614;53.140;6.366;2024-03-29T15:02:23;14.73;;;2.05;;
53151;SDS011;77614;53.140;6.366;2024-03-29T15:04:49;14.75;;;2.17;;
53151;SDS011;77614;53.140;6.366;2024-03-29T15:07:15;14.05;;;1.92;;
53151;SDS011;77614;53.140;6.366;2024-03-29T15:09:41;17.13;;;2.03;;
53151;SDS011;77614;53.140;6.366;2024-03-29T15:12:07;13.63;;;1.73;;
53151;SDS011;77614;53.140;6.366;2024-03-29T15:14:34;11.82;;;2.15;;
53151;SDS011;77614;53.140;6.366;2024-03-29T15:17:00;14.13;;;2.20;;
53151;SDS011;77614;53.140;6.366;2024-03-29T15:19:27;6.63;;;1.70;;
53151;SDS011;77614;53.140;6.366;2024-03-29T15:21:53;11.00;;;2.28;;
53151;SDS011;77614;53.140;6.366;2024-03-29T15:24:21;10.85;;;2.28;;
53151;SDS011;77614;53.140;6.366;2024-03-29T15:26:47;15.80;;;2.17;;
53151;SDS011;77614;53.140;6.366;2024-03-29T15:29:15;13.20;;;1.92;;
53151;SDS011;77614;53.140;6.366;2024-03-29T15:31:43;17.80;;;2.45;;
53151;SDS011;77614;53.140;6.366;2024-03-29T15:34:09;16.33;;;2.20;;
53151;SDS011;77614;53.140;6.366;2024-03-29T15:36:36;14.70;;;2.05;;
53151;SDS011;77614;53.140;6.366;2024-03-29T15:39:03;18.00;;;2.47;;
53151;SDS011;77614;53.140;6.366;2024-03-29T15:41:33;14.68;;;2.10;;
53151;SDS011;77614;53.140;6.366;2024-03-29T15:44:00;12.10;;;1.92;;
53151;SDS011;77614;53.140;6.366;2024-03-29T15:46:27;12.18;;;1.70;;
53151;SDS011;77614;53.140;6.366;2024-03-29T15:48:53;13.02;;;1.88;;
53151;SDS011;77614;53.140;6.366;2024-03-29T15:51:19;12.52;;;1.50;;
53151;SDS011;77614;53.140;6.366;2024-03-29T15:53:46;11.23;;;1.90;;
53151;SDS011;77614;53.140;6.366;2024-03-29T15:56:14;12.40;;;1.60;;
53151;SDS011;77614;53.140;6.366;2024-03-29T15:58:40;12.70;;;2.08;;
53151;SDS011;77614;53.140;6.366;2024-03-29T16:01:06;10.13;;;1.58;;
53151;SDS011;77614;53.140;6.366;2024-03-29T16:03:34;10.05;;;1.75;;
53151;SDS011;77614;53.140;6.366;2024-03-29T16:06:00;10.35;;;2.13;;
53151;SDS011;77614;53.140;6.366;2024-03-29T16:08:26;14.63;;;2.55;;
53151;SDS011;77614;53.140;6.366;2024-03-29T16:10:53;8.98;;;1.73;;
53151;SDS011;77614;53.140;6.366;2024-03-29T16:13:20;10.57;;;1.85;;
53151;SDS011;77614;53.140;6.366;2024-03-29T16:15:47;9.77;;;1.67;;
53151;SDS011;77614;53.140;6.366;2024-03-29T16:18:14;7.82;;;1.80;;
53151;SDS011;77614;53.140;6.366;2024-03-29T16:20:41;9.35;;;2.00;;
53151;SDS011;77614;53.140;6.366;2024-03-29T16:23:07;8.10;;;1.83;;
53151;SDS011;77614;53.140;6.366;2024-03-29T16:25:33;9.30;;;1.95;;
53151;SDS011;77614;53.140;6.366;2024-03-29T16:27:59;9.05;;;2.10;;
53151;SDS011;77614;53.140;6.366;2024-03-29T16:30:26;10.30;;;1.92;;
53151;SDS011;77614;53.140;6.366;2024-03-29T16:32:52;7.63;;;1.85;;
53151;SDS011;77614;53.140;6.366;2024-03-29T16:35:21;8.95;;;2.13;;
53151;SDS011;77614;53.140;6.366;2024-03-29T16:37:47;12.23;;;2.15;;
53151;SDS011;77614;53.140;6.366;2024-03-29T16:40:13;12.43;;;1.92;;
53151;SDS011;77614;53.140;6.366;2024-03-29T16:42:40;12.30;;;1.85;;
53151;SDS011;77614;53.140;6.366;2024-03-29T16:45:08;9.90;;;2.13;;
53151;SDS011;77614;53.140;6.366;2024-03-29T16:47:34;9.88;;;2.30;;
53151;SDS011;77614;53.140;6.366;2024-03-29T16:50:00;5.65;;;1.98;;
53151;SDS011;77614;53.140;6.366;2024-03-29T16:52:26;7.97;;;1.70;;
53151;SDS011;77614;53.140;6.366;2024-03-29T16:54:55;8.60;;;2.20;;
53151;SDS011;77614;53.140;6.366;2024-03-29T16:57:21;7.20;;;2.33;;
53151;SDS011;77614;53.140;6.366;2024-03-29T16:59:48;8.23;;;1.95;;
53151;SDS011;77614;53.140;6.366;2024-03-29T17:02:14;4.90;;;1.77;;
53151;SDS011;77614;53.140;6.366;2024-03-29T17:04:41;10.73;;;2.20;;
53151;SDS011;77614;53.140;6.366;2024-03-29T17:07:10;12.90;;;2.50;;
53151;SDS011;77614;53.140;6.366;2024-03-29T17:09:40;8.95;;;2.38;;
53151;SDS011;77614;53.140;6.366;2024-03-29T17:12:06;11.02;;;2.33;;
53151;SDS011;77614;53.140;6.366;2024-03-29T17:14:33;7.80;;;2.55;;
53151;SDS011;77614;53.140;6.366;2024-03-29T17:16:59;9.85;;;2.35;;
53151;SDS011;77614;53.140;6.366;2024-03-29T17:19:37;11.50;;;2.60;;
53151;SDS011;77614;53.140;6.366;2024-03-29T17:22:03;10.73;;;2.22;;
53151;SDS011;77614;53.140;6.366;2024-03-29T17:24:30;10.70;;;2.85;;
53151;SDS011;77614;53.140;6.366;2024-03-29T17:26:56;8.52;;;2.28;;
53151;SDS011;77614;53.140;6.366;2024-03-29T17:29:23;13.75;;;2.80;;
53151;SDS011;77614;53.140;6.366;2024-03-29T17:31:49;11.10;;;2.65;;
53151;SDS011;77614;53.140;6.366;2024-03-29T17:34:16;9.82;;;2.95;;
53151;SDS011;77614;53.140;6.366;2024-03-29T17:36:43;8.15;;;2.33;;
53151;SDS011;77614;53.140;6.366;2024-03-29T17:39:10;7.13;;;2.30;;
53151;SDS011;77614;53.140;6.366;2024-03-29T17:41:38;11.35;;;2.92;;
53151;SDS011;77614;53.140;6.366;2024-03-29T17:44:04;10.75;;;3.13;;
53151;SDS011;77614;53.140;6.366;2024-03-29T17:46:31;8.88;;;3.58;;
53151;SDS011;77614;53.140;6.366;2024-03-29T17:48:58;9.52;;;3.53;;
53151;SDS011;77614;53.140;6.366;2024-03-29T17:51:23;11.20;;;3.28;;
53151;SDS011;77614;53.140;6.366;2024-03-29T17:53:50;12.55;;;3.50;;
53151;SDS011;77614;53.140;6.366;2024-03-29T17:56:17;12.38;;;3.90;;
53151;SDS011;77614;53.140;6.366;2024-03-29T17:58:48;8.93;;;3.80;;
53151;SDS011;77614;53.140;6.366;2024-03-29T18:01:15;8.73;;;3.58;;
53151;SDS011;77614;53.140;6.366;2024-03-29T18:03:43;10.55;;;3.60;;
53151;SDS011;77614;53.140;6.366;2024-03-29T18:06:11;12.73;;;4.05;;
53151;SDS011;77614;53.140;6.366;2024-03-29T18:08:38;7.95;;;4.10;;
53151;SDS011;77614;53.140;6.366;2024-03-29T18:11:05;7.25;;;3.45;;
53151;SDS011;77614;53.140;6.366;2024-03-29T18:13:34;10.63;;;4.22;;
53151;SDS011;77614;53.140;6.366;2024-03-29T18:16:01;7.93;;;3.97;;
53151;SDS011;77614;53.140;6.366;2024-03-29T18:18:28;6.65;;;3.67;;
53151;SDS011;77614;53.140;6.366;2024-03-29T18:20:58;12.35;;;4.07;;
53151;SDS011;77614;53.140;6.366;2024-03-29T18:23:24;10.20;;;3.63;;
53151;SDS011;77614;53.140;6.366;2024-03-29T18:25:50;9.40;;;4.03;;
53151;SDS011;77614;53.140;6.366;2024-03-29T18:28:16;9.82;;;4.00;;
53151;SDS011;77614;53.140;6.366;2024-03-29T18:30:42;7.45;;;4.05;;
53151;SDS011;77614;53.140;6.366;2024-03-29T18:33:08;7.90;;;3.83;;
53151;SDS011;77614;53.140;6.366;2024-03-29T18:35:34;7.22;;;3.85;;
53151;SDS011;77614;53.140;6.366;2024-03-29T18:38:01;7.97;;;4.50;;
53151;SDS011;77614;53.140;6.366;2024-03-29T18:40:28;9.23;;;4.10;;
53151;SDS011;77614;53.140;6.366;2024-03-29T18:42:53;7.10;;;3.97;;
53151;SDS011;77614;53.140;6.366;2024-03-29T18:45:19;8.65;;;4.15;;
53151;SDS011;77614;53.140;6.366;2024-03-29T18:47:49;7.55;;;4.70;;
53151;SDS011;77614;53.140;6.366;2024-03-29T18:50:15;8.43;;;4.55;;
53151;SDS011;77614;53.140;6.366;2024-03-29T18:52:42;7.93;;;4.75;;
53151;SDS011;77614;53.140;6.366;2024-03-29T18:55:09;8.27;;;4.30;;
53151;SDS011;77614;53.140;6.366;2024-03-29T18:57:35;7.10;;;4.43;;
53151;SDS011;77614;53.140;6.366;2024-03-29T19:00:02;8.82;;;4.03;;
53151;SDS011;77614;53.140;6.366;2024-03-29T19:02:29;8.48;;;4.32;;
53151;SDS011;77614;53.140;6.366;2024-03-29T19:04:55;8.63;;;4.68;;
53151;SDS011;77614;53.140;6.366;2024-03-29T19:07:21;10.27;;;4.53;;
53151;SDS011;77614;53.140;6.366;2024-03-29T19:09:47;7.90;;;4.65;;
53151;SDS011;77614;53.140;6.366;2024-03-29T19:12:13;7.40;;;4.55;;
53151;SDS011;77614;53.140;6.366;2024-03-29T19:14:39;9.77;;;4.43;;
53151;SDS011;77614;53.140;6.366;2024-03-29T19:17:05;6.85;;;4.57;;
53151;SDS011;77614;53.140;6.366;2024-03-29T19:19:33;7.43;;;4.35;;
53151;SDS011;77614;53.140;6.366;2024-03-29T19:22:00;8.15;;;4.35;;
53151;SDS011;77614;53.140;6.366;2024-03-29T19:24:25;7.47;;;5.03;;
53151;SDS011;77614;53.140;6.366;2024-03-29T19:26:51;7.80;;;4.90;;
53151;SDS011;77614;53.140;6.366;2024-03-29T19:29:19;7.78;;;5.35;;
53151;SDS011;77614;53.140;6.366;2024-03-29T19:31:45;7.80;;;5.68;;
53151;SDS011;77614;53.140;6.366;2024-03-29T19:34:11;7.78;;;5.18;;
53151;SDS011;77614;53.140;6.366;2024-03-29T19:36:37;7.57;;;5.47;;
53151;SDS011;77614;53.140;6.366;2024-03-29T19:39:03;8.63;;;5.45;;
53151;SDS011;77614;53.140;6.366;2024-03-29T19:41:32;8.05;;;5.70;;
53151;SDS011;77614;53.140;6.366;2024-03-29T19:43:58;9.40;;;5.95;;
53151;SDS011;77614;53.140;6.366;2024-03-29T19:46:24;10.52;;;6.85;;